METAR Data
IDs: Format: Raw Decoded Include TAF

Data at: 2055 UTC 17 Nov 2019

KPCD 172035Z AUTO 23005KT 10SM CLR 10/02 A2992 RMK AO2 T01010017
KPCD 172015Z AUTO 17004KT 10SM CLR 10/02 A2992 RMK AO2 T00970015
KPCD 171955Z AUTO 11003KT 10SM CLR 10/02 A2993 RMK AO2 T00950020
KPCD 171935Z AUTO 11005KT 10SM CLR 10/02 A2994 RMK AO2 T00960017
KPCD 171915Z AUTO 20004KT 10SM CLR 10/02 A2995 RMK AO2 T00970016
KPCD 171855Z AUTO 18004KT 10SM CLR 09/02 A2996 RMK AO2 T00930017
KPCD 171835Z AUTO 16006KT 10SM CLR 10/02 A2996 RMK AO2 T00960019
KPCD 171815Z AUTO 17005KT 10SM CLR 09/02 A2999 RMK AO2 T00860019
KPCD 171755Z AUTO 14004KT 7SM CLR 08/02 A3000 RMK AO2 T00760019 10076 21041
KPCD 171735Z AUTO 11006KT 7SM CLR 07/02 A3001 RMK AO2 T00700019
KPCD 171715Z AUTO 17003KT 7SM CLR 06/01 A3003 RMK AO2 T00620014
KPCD 171655Z AUTO 12006KT 3SM BR CLR 05/03 A3004 RMK AO2 T00520026
KPCD 171635Z AUTO 12007KT 2 1/2SM BR CLR 04/02 A3005 RMK AO2 T00430021
KPCD 171615Z AUTO 12006KT 3SM BR CLR 04/02 A3006 RMK AO2 T00350015
KPCD 171555Z AUTO 12004KT 4SM BR CLR 03/01 A3007 RMK AO2 T00280012
KPCD 171535Z AUTO 11004KT 4SM BR CLR 02/01 A3007 RMK AO2 T00220007
KPCD 171515Z AUTO 00000KT 4SM BR CLR 02/00 A3009 RMK AO2 T00150002
KPCD 171455Z AUTO 13004KT 2 1/2SM BR CLR 01/00 A3007 RMK AO2 T00110003
KPCD 171435Z AUTO 00000KT 1 3/4SM BR VV007 00/00 A3009 RMK AO2 T00041001
KPCD 171415Z AUTO 12004KT 2SM BR CLR 00/M01 A3008 RMK AO2 T10051011
KPCD 171355Z AUTO 00000KT 2SM BR CLR M01/M02 A3009 RMK AO2 T10151020
KPCD 171335Z AUTO 00000KT 1SM BR BKN002 M02/M02 A3009 RMK AO2 T10201025
KPCD 171315Z AUTO 11003KT 1SM BR OVC002 M02/M03 A3009 RMK AO2 T10221028
KPCD 171255Z AUTO 12003KT 2SM BR CLR M03/M04 A3009 RMK AO2 T10311037
KPCD 171235Z AUTO 00000KT 4SM BR CLR M03/M04 A3011 RMK AO2 T10331041
KPCD 171215Z AUTO 00000KT 5SM BR CLR M02/M03 A3009 RMK AO2 T10251031
KPCD 171155Z AUTO 25003KT 5SM BR CLR M03/M04 A3011 RMK AO2 T10321039 11017 21043
KPCD 171135Z AUTO 00000KT 4SM BR CLR M03/M04 A3011 RMK AO2 T10301037
KPCD 171115Z AUTO 25003KT 4SM BR CLR M03/M04 A3011 RMK AO2 T10301036
KPCD 171055Z AUTO 10003KT 4SM BR CLR M04/M04 A3010 RMK AO2 T10361045
KPCD 171035Z AUTO 00000KT 4SM BR CLR M03/M04 A3012 RMK AO2 T10301037
KPCD 171015Z AUTO 00000KT 4SM BR CLR M03/M04 A3013 RMK AO2 T10351041
KPCD 170955Z AUTO 00000KT 4SM BR CLR M04/M05 A3013 RMK AO2 T10401046
KPCD 170935Z AUTO 22003KT 4SM BR CLR M04/M04 A3013 RMK AO2 T10361043
KPCD 170915Z AUTO 00000KT 4SM BR SCT005 M04/M05 A3013 RMK AO2 T10411047
KPCD 170855Z AUTO 00000KT 2 1/2SM BR SCT005 SCT009 M04/M04 A3013 RMK AO2 T10381043
KPCD 170835Z AUTO 00000KT 4SM BR CLR M04/M04 A3014 RMK AO2 T10361044
KPCD 170815Z AUTO 00000KT 5SM BR CLR M03/M04 A3014 RMK AO2 T10301038
KPCD 170755Z AUTO 00000KT 4SM BR CLR M02/M03 A3015 RMK AO2 T10241032
KPCD 170735Z AUTO 26004KT 5SM BR CLR M02/M03 A3016 RMK AO2 T10211027
KPCD 170715Z AUTO 23004KT 5SM BR SCT007 SCT010 M03/M03 A3016 RMK AO2 T10301035
KPCD 170655Z AUTO 00000KT 1/4SM FZFG OVC007 M02/M03 A3017 RMK AO2 T10241028
KPCD 170635Z AUTO 00000KT 2SM BR CLR M02/M02 A3018 RMK AO2 T10211025
KPCD 170615Z AUTO 00000KT 3SM BR CLR M03/M03 A3018 RMK AO2 T10271031
KPCD 170555Z AUTO 00000KT 3SM BR CLR M02/M02 A3018 RMK AO2 T10171021 10029 21024 400951056
KPCD 170535Z AUTO 00000KT 4SM BR CLR M01/M02 A3017 RMK AO2 T10151020
KPCD 170515Z AUTO 00000KT 4SM BR CLR M02/M03 A3017 RMK AO2 T10191026
KPCD 170455Z AUTO 00000KT 5SM BR CLR M02/M03 A3016 RMK AO2 T10221029
KPCD 170435Z AUTO 00000KT 5SM BR CLR M02/M02 A3016 RMK AO2 T10191024
KPCD 170415Z AUTO 00000KT 7SM CLR M02/M03 A3018 RMK AO2 T10181029
KPCD 170355Z AUTO 00000KT 7SM CLR M02/M02 A3017 RMK AO2 T10171024
KPCD 170335Z AUTO 00000KT 7SM CLR M01/M02 A3018 RMK AO2 T10071025
KPCD 170315Z AUTO 00000KT 10SM CLR 00/M02 A3018 RMK AO2 T10031017
KPCD 170255Z AUTO 15005KT 7SM CLR 00/M01 A3018 RMK AO2 T10011012
KPCD 170235Z AUTO 04004KT 7SM CLR 00/M01 A3019 RMK AO2 T10011012
KPCD 170215Z AUTO 00000KT 7SM CLR 00/M01 A3019 RMK AO2 T10051013
KPCD 170155Z AUTO 00000KT 7SM CLR M01/M03 A3019 RMK AO2 T10151029
KPCD 170135Z AUTO 00000KT 10SM CLR 01/M01 A3019 RMK AO2 T00061010
KPCD 170115Z AUTO 00000KT 10SM CLR 00/M02 A3019 RMK AO2 T00041020
KPCD 170055Z AUTO 00000KT 10SM CLR 03/00 A3019 RMK AO2 T00281002
KPCD 170035Z AUTO 12004KT 10SM CLR 02/00 A3019 RMK AO2 T00241005
KPCD 170015Z AUTO 12005KT 10SM CLR 02/00 A3019 RMK AO2 T00221005
KPCD 162355Z AUTO 03005KT 7SM CLR 02/00 A3020 RMK AO2 T00201001 10095 20016
KPCD 162335Z AUTO 04007KT 7SM CLR 03/00 A3019 RMK AO2 T00270000
KPCD 162315Z AUTO 04006KT 7SM CLR 04/00 A3019 RMK AO2 T00350000
KPCD 162255Z AUTO 04004KT 10SM CLR 05/01 A3019 RMK AO2 T00500007
KPCD 162235Z AUTO 03005KT 4SM HZ CLR 06/01 A3019 RMK AO2 T00640007
KPCD 162215Z AUTO 05003KT 10SM CLR 08/01 A3020 RMK AO2 T00840006
KPCD 162155Z AUTO 04003KT 10SM CLR 09/01 A3020 RMK AO2 T00900005
KPCD 162135Z AUTO 00000KT 10SM CLR 09/01 A3021 RMK AO2 T00920005
KPCD 162115Z AUTO 05004KT 10SM CLR 10/01 A3021 RMK AO2 T00950010
KPCD 162055Z AUTO 03003KT 10SM CLR 09/01 A3021 RMK AO2 T00920010
KPCD 162035Z AUTO 04004KT 10SM CLR 09/01 A3022 RMK AO2 T00910013
KPCD 162015Z AUTO 00000KT 10SM CLR 09/02 A3023 RMK AO2 T00880017
KPCD 161955Z AUTO 00000KT 10SM CLR 08/02 A3024 RMK AO2 T00800015
KPCD 161935Z AUTO 00000KT 10SM CLR 08/01 A3024 RMK AO2 T00780014
KPCD 161915Z AUTO 00000KT 10SM CLR 07/01 A3025 RMK AO2 T00710013
KPCD 161855Z AUTO 31004KT 10SM CLR 07/01 A3026 RMK AO2 T00690013
KPCD 161835Z AUTO 00000KT 10SM CLR 07/01 A3027 RMK AO2 T00650008
KPCD 161815Z AUTO 00000KT 10SM CLR 06/01 A3028 RMK AO2 T00640006
KPCD 161755Z AUTO 34003KT 10SM CLR 06/00 A3029 RMK AO2 T00600003 10060 21056
KPCD 161735Z AUTO 00000KT 10SM CLR 06/00 A3030 RMK AO2 T00570004
KPCD 161715Z AUTO 00000KT 10SM CLR 05/00 A3031 RMK AO2 T00530000
KPCD 161655Z AUTO 00000KT 10SM CLR 04/00 A3033 RMK AO2 T00401003
KPCD 161635Z AUTO 28003KT 10SM CLR 04/00 A3034 RMK AO2 T00351003
KPCD 161615Z AUTO 00000KT 10SM CLR 04/M01 A3034 RMK AO2 T00351010
KPCD 161555Z AUTO 00000KT 10SM CLR 02/M01 A3035 RMK AO2 T00241012
KPCD 161535Z AUTO 00000KT 10SM CLR 02/M01 A3035 RMK AO2 T00181015
KPCD 161515Z AUTO 08003KT 10SM CLR 02/M01 A3036 RMK AO2 T00151013
KPCD 161455Z AUTO 00000KT 7SM CLR 01/M02 A3036 RMK AO2 T00051016
KPCD 161435Z AUTO 00000KT 7SM CLR 00/M02 A3036 RMK AO2 T00001019
KPCD 161415Z AUTO 00000KT 7SM CLR M01/M02 A3037 RMK AO2 T10061020
KPCD 161355Z AUTO 00000KT 5SM BR CLR M02/M02 A3037 RMK AO2 T10161025
KPCD 161335Z AUTO 32003KT 5SM BR CLR M03/M04 A3036 RMK AO2 T10311039
KPCD 161315Z AUTO 33003KT 5SM BR CLR M04/M04 A3036 RMK AO2 T10381045
KPCD 161255Z AUTO 29003KT 5SM BR CLR M05/M06 A3037 RMK AO2 T10501057
KPCD 161235Z AUTO 30004KT 7SM CLR M05/M06 A3037 RMK AO2 T10511059
KPCD 161215Z AUTO 30004KT 7SM CLR M05/M06 A3037 RMK AO2 T10511059
KPCD 161155Z AUTO 32004KT 10SM CLR M05/M06 A3036 RMK AO2 T10531065 11032 21054
KPCD 161135Z AUTO 32003KT 10SM CLR M05/M06 A3036 RMK AO2 T10501061
KPCD 161115Z AUTO 23004KT 10SM CLR M05/M06 A3035 RMK AO2 T10531065
KPCD 161055Z AUTO 32003KT 10SM CLR M05/M06 A3035 RMK AO2 T10501061
KPCD 161035Z AUTO 00000KT 10SM CLR M04/M05 A3035 RMK AO2 T10441054
KPCD 161015Z AUTO 21003KT 10SM CLR M04/M05 A3035 RMK AO2 T10451055
KPCD 160955Z AUTO 22003KT 10SM CLR M05/M06 A3034 RMK AO2 T10471058
KPCD 160935Z AUTO 31003KT 10SM CLR M05/M06 A3034 RMK AO2 T10481059
KPCD 160915Z AUTO 32003KT 10SM CLR M05/M06 A3034 RMK AO2 T10471057